sensor_id;sensor_type;location;lat;lon;timestamp;pressure;altitude;pressure_sealevel;temperature;humidity
30708;BME280;17458;48.958;8.284;2023-04-20T00:00:16;100453.03;;;8.67;55.24
30708;BME280;17458;48.958;8.284;2023-04-20T00:03:00;100439.94;;;8.70;55.57
30708;BME280;17458;48.958;8.284;2023-04-20T00:05:44;100432.47;;;8.34;56.21
30708;BME280;17458;48.958;8.284;2023-04-20T00:08:32;100426.53;;;8.23;57.09
30708;BME280;17458;48.958;8.284;2023-04-20T00:11:16;100429.47;;;8.42;56.20
30708;BME280;17458;48.958;8.284;2023-04-20T00:14:00;100425.00;;;8.41;56.23
30708;BME280;17458;48.958;8.284;2023-04-20T00:16:44;100418.28;;;8.18;56.88
30708;BME280;17458;48.958;8.284;2023-04-20T00:19:28;100414.38;;;8.12;57.00
30708;BME280;17458;48.958;8.284;2023-04-20T00:22:15;100402.72;;;7.66;58.12
30708;BME280;17458;48.958;8.284;2023-04-20T00:24:59;100401.69;;;8.06;57.17
30708;BME280;17458;48.958;8.284;2023-04-20T00:27:43;100395.50;;;8.06;57.12
30708;BME280;17458;48.958;8.284;2023-04-20T00:30:31;100395.50;;;8.21;56.87
30708;BME280;17458;48.958;8.284;2023-04-20T00:33:14;100384.38;;;8.26;56.69
30708;BME280;17458;48.958;8.284;2023-04-20T00:35:59;100383.72;;;8.01;57.17
30708;BME280;17458;48.958;8.284;2023-04-20T00:38:43;100389.09;;;8.17;56.64
30708;BME280;17458;48.958;8.284;2023-04-20T00:41:27;100375.41;;;7.80;57.43
30708;BME280;17458;48.958;8.284;2023-04-20T00:44:11;100378.06;;;7.95;57.44
30708;BME280;17458;48.958;8.284;2023-04-20T00:46:56;100381.00;;;7.99;57.36
30708;BME280;17458;48.958;8.284;2023-04-20T00:49:40;100364.53;;;7.75;57.73
30708;BME280;17458;48.958;8.284;2023-04-20T00:52:24;100367.41;;;7.93;57.54
30708;BME280;17458;48.958;8.284;2023-04-20T00:55:08;100358.09;;;7.70;57.78
30708;BME280;17458;48.958;8.284;2023-04-20T00:57:53;100362.88;;;7.63;58.23
30708;BME280;17458;48.958;8.284;2023-04-20T01:00:38;100358.97;;;7.56;58.20
30708;BME280;17458;48.958;8.284;2023-04-20T01:03:23;100355.72;;;7.47;58.15
30708;BME280;17458;48.958;8.284;2023-04-20T01:06:07;100353.94;;;7.61;57.92
30708;BME280;17458;48.958;8.284;2023-04-20T01:08:51;100348.06;;;7.37;58.97
30708;BME280;17458;48.958;8.284;2023-04-20T01:11:35;100339.28;;;7.23;59.05
30708;BME280;17458;48.958;8.284;2023-04-20T01:14:19;100343.19;;;7.43;59.29
30708;BME280;17458;48.958;8.284;2023-04-20T01:17:03;100328.91;;;7.26;59.33
30708;BME280;17458;48.958;8.284;2023-04-20T01:19:49;100328.84;;;7.39;59.01
30708;BME280;17458;48.958;8.284;2023-04-20T01:22:45;100320.94;;;7.39;58.85
30708;BME280;17458;48.958;8.284;2023-04-20T01:25:30;100321.41;;;7.62;59.14
30708;BME280;17458;48.958;8.284;2023-04-20T01:28:14;100318.25;;;7.67;58.55
30708;BME280;17458;48.958;8.284;2023-04-20T01:30:58;100321.16;;;7.57;58.79
30708;BME280;17458;48.958;8.284;2023-04-20T01:33:42;100312.66;;;7.63;58.67
30708;BME280;17458;48.958;8.284;2023-04-20T01:36:26;100307.56;;;7.66;58.56
30708;BME280;17458;48.958;8.284;2023-04-20T01:39:11;100307.38;;;7.63;58.33
30708;BME280;17458;48.958;8.284;2023-04-20T01:41:55;100296.81;;;7.63;58.14
30708;BME280;17458;48.958;8.284;2023-04-20T01:44:41;100290.56;;;7.33;58.67
30708;BME280;17458;48.958;8.284;2023-04-20T01:47:25;100291.06;;;7.55;58.35
30708;BME280;17458;48.958;8.284;2023-04-20T01:50:09;100292.81;;;7.55;58.41
30708;BME280;17458;48.958;8.284;2023-04-20T01:52:53;100287.75;;;7.44;58.60
30708;BME280;17458;48.958;8.284;2023-04-20T01:55:37;100287.38;;;7.24;59.11
30708;BME280;17458;48.958;8.284;2023-04-20T01:58:22;100282.25;;;7.12;59.64
30708;BME280;17458;48.958;8.284;2023-04-20T02:01:06;100283.47;;;7.46;58.71
30708;BME280;17458;48.958;8.284;2023-04-20T02:03:50;100284.72;;;7.24;59.33
30708;BME280;17458;48.958;8.284;2023-04-20T02:06:38;100279.53;;;7.25;59.22
30708;BME280;17458;48.958;8.284;2023-04-20T02:09:26;100269.47;;;7.47;59.04
30708;BME280;17458;48.958;8.284;2023-04-20T02:12:11;100278.75;;;7.41;59.36
30708;BME280;17458;48.958;8.284;2023-04-20T02:14:57;100273.97;;;7.21;59.64
30708;BME280;17458;48.958;8.284;2023-04-20T02:17:41;100271.88;;;7.15;59.61
30708;BME280;17458;48.958;8.284;2023-04-20T02:20:26;100273.06;;;7.20;59.87
30708;BME280;17458;48.958;8.284;2023-04-20T02:23:11;100269.28;;;7.30;59.84
30708;BME280;17458;48.958;8.284;2023-04-20T02:25:55;100267.34;;;7.27;60.39
30708;BME280;17458;48.958;8.284;2023-04-20T02:28:39;100265.94;;;7.19;60.20
30708;BME280;17458;48.958;8.284;2023-04-20T02:31:23;100258.56;;;7.14;59.76
30708;BME280;17458;48.958;8.284;2023-04-20T02:34:07;100257.75;;;7.15;60.06
30708;BME280;17458;48.958;8.284;2023-04-20T02:36:52;100253.91;;;7.09;60.50
30708;BME280;17458;48.958;8.284;2023-04-20T02:39:36;100244.13;;;6.94;60.54
30708;BME280;17458;48.958;8.284;2023-04-20T02:42:20;100242.31;;;6.93;60.52
30708;BME280;17458;48.958;8.284;2023-04-20T02:45:06;100241.78;;;6.70;61.44
30708;BME280;17458;48.958;8.284;2023-04-20T02:47:50;100233.63;;;6.81;61.47
30708;BME280;17458;48.958;8.284;2023-04-20T02:50:35;100232.63;;;6.79;61.25
30708;BME280;17458;48.958;8.284;2023-04-20T02:53:31;100234.28;;;6.91;60.93
30708;BME280;17458;48.958;8.284;2023-04-20T02:56:29;100230.50;;;7.01;60.40
30708;BME280;17458;48.958;8.284;2023-04-20T02:59:18;100234.13;;;7.03;59.66
30708;BME280;17458;48.958;8.284;2023-04-20T03:02:10;100225.50;;;7.20;59.60
30708;BME280;17458;48.958;8.284;2023-04-20T03:04:54;100225.72;;;7.23;59.32
30708;BME280;17458;48.958;8.284;2023-04-20T03:07:39;100225.97;;;7.13;59.60
30708;BME280;17458;48.958;8.284;2023-04-20T03:10:24;100224.47;;;7.03;60.26
30708;BME280;17458;48.958;8.284;2023-04-20T03:13:15;100218.59;;;6.80;60.91
30708;BME280;17458;48.958;8.284;2023-04-20T03:16:10;100223.69;;;6.76;60.93
30708;BME280;17458;48.958;8.284;2023-04-20T03:19:00;100216.78;;;6.79;61.50
30708;BME280;17458;48.958;8.284;2023-04-20T03:21:45;100221.59;;;6.71;61.49
30708;BME280;17458;48.958;8.284;2023-04-20T03:24:28;100216.88;;;6.80;61.16
30708;BME280;17458;48.958;8.284;2023-04-20T03:27:16;100211.25;;;6.89;61.25
30708;BME280;17458;48.958;8.284;2023-04-20T03:30:13;100210.97;;;6.84;60.71
30708;BME280;17458;48.958;8.284;2023-04-20T03:32:58;100214.28;;;6.95;60.20
30708;BME280;17458;48.958;8.284;2023-04-20T03:35:42;100210.59;;;6.78;60.88
30708;BME280;17458;48.958;8.284;2023-04-20T03:38:26;100211.19;;;6.74;60.95
30708;BME280;17458;48.958;8.284;2023-04-20T03:41:10;100205.91;;;6.59;62.15
30708;BME280;17458;48.958;8.284;2023-04-20T03:43:55;100215.19;;;6.67;62.33
30708;BME280;17458;48.958;8.284;2023-04-20T03:46:39;100215.34;;;6.84;61.16
30708;BME280;17458;48.958;8.284;2023-04-20T03:49:23;100208.44;;;6.86;61.52
30708;BME280;17458;48.958;8.284;2023-04-20T03:52:08;100216.00;;;6.94;61.42
30708;BME280;17458;48.958;8.284;2023-04-20T03:54:52;100205.06;;;6.88;61.22
30708;BME280;17458;48.958;8.284;2023-04-20T03:57:36;100203.72;;;6.67;62.32
30708;BME280;17458;48.958;8.284;2023-04-20T04:00:23;100211.69;;;6.54;62.10
30708;BME280;17458;48.958;8.284;2023-04-20T04:03:14;100210.53;;;6.63;62.53
30708;BME280;17458;48.958;8.284;2023-04-20T04:05:58;100209.31;;;6.71;62.36
30708;BME280;17458;48.958;8.284;2023-04-20T04:08:42;100213.41;;;6.81;61.62
30708;BME280;17458;48.958;8.284;2023-04-20T04:11:26;100216.25;;;6.84;61.79
30708;BME280;17458;48.958;8.284;2023-04-20T04:14:13;100214.09;;;6.64;62.56
30708;BME280;17458;48.958;8.284;2023-04-20T04:16:58;100216.19;;;6.42;62.48
30708;BME280;17458;48.958;8.284;2023-04-20T04:19:42;100207.97;;;6.37;62.62
30708;BME280;17458;48.958;8.284;2023-04-20T04:22:26;100207.59;;;6.31;62.73
30708;BME280;17458;48.958;8.284;2023-04-20T04:25:31;100209.41;;;6.19;62.92
30708;BME280;17458;48.958;8.284;2023-04-20T04:28:15;100208.19;;;6.40;62.91
30708;BME280;17458;48.958;8.284;2023-04-20T04:31:12;100194.03;;;6.53;62.00
30708;BME280;17458;48.958;8.284;2023-04-20T04:33:57;100195.75;;;6.52;62.00
30708;BME280;17458;48.958;8.284;2023-04-20T04:36:53;100189.72;;;6.40;62.50
30708;BME280;17458;48.958;8.284;2023-04-20T04:39:44;100194.78;;;6.37;62.53
30708;BME280;17458;48.958;8.284;2023-04-20T04:42:43;100195.22;;;6.30;62.55
30708;BME280;17458;48.958;8.284;2023-04-20T04:45:28;100205.34;;;6.37;62.44
30708;BME280;17458;48.958;8.284;2023-04-20T04:48:13;100203.25;;;6.18;63.01
30708;BME280;17458;48.958;8.284;2023-04-20T04:50:57;100203.78;;;6.13;63.45
30708;BME280;17458;48.958;8.284;2023-04-20T04:53:41;100199.91;;;6.21;63.50
30708;BME280;17458;48.958;8.284;2023-04-20T04:56:27;100192.16;;;6.37;63.02
30708;BME280;17458;48.958;8.284;2023-04-20T04:59:11;100198.84;;;6.73;62.53
30708;BME280;17458;48.958;8.284;2023-04-20T05:01:55;100200.91;;;7.06;61.06
30708;BME280;17458;48.958;8.284;2023-04-20T05:04:39;100198.00;;;6.74;61.64
30708;BME280;17458;48.958;8.284;2023-04-20T05:07:23;100195.06;;;6.55;61.81
30708;BME280;17458;48.958;8.284;2023-04-20T05:10:07;100199.97;;;6.63;61.71
30708;BME280;17458;48.958;8.284;2023-04-20T05:12:51;100196.22;;;7.16;61.22
30708;BME280;17458;48.958;8.284;2023-04-20T05:15:35;100195.34;;;7.90;59.23
30708;BME280;17458;48.958;8.284;2023-04-20T05:18:19;100201.22;;;7.70;58.77
30708;BME280;17458;48.958;8.284;2023-04-20T05:21:03;100207.28;;;7.98;58.72
30708;BME280;17458;48.958;8.284;2023-04-20T05:23:47;100200.19;;;9.08;56.41
30708;BME280;17458;48.958;8.284;2023-04-20T05:26:31;100191.88;;;9.68;54.85
30708;BME280;17458;48.958;8.284;2023-04-20T05:29:15;100198.44;;;8.29;56.84
30708;BME280;17458;48.958;8.284;2023-04-20T05:31:59;100197.16;;;7.91;57.95
30708;BME280;17458;48.958;8.284;2023-04-20T05:34:43;100198.63;;;7.86;58.71
30708;BME280;17458;48.958;8.284;2023-04-20T05:37:27;100187.94;;;7.54;59.17
30708;BME280;17458;48.958;8.284;2023-04-20T05:40:11;100191.66;;;7.72;59.31
30708;BME280;17458;48.958;8.284;2023-04-20T05:43:05;100192.22;;;8.43;57.54
30708;BME280;17458;48.958;8.284;2023-04-20T05:45:49;100191.19;;;8.56;57.00
30708;BME280;17458;48.958;8.284;2023-04-20T05:48:33;100194.00;;;8.91;57.36
30708;BME280;17458;48.958;8.284;2023-04-20T05:51:16;100182.09;;;8.67;57.10
30708;BME280;17458;48.958;8.284;2023-04-20T05:54:00;100180.31;;;8.51;57.62
30708;BME280;17458;48.958;8.284;2023-04-20T05:56:44;100189.16;;;8.35;57.35
30708;BME280;17458;48.958;8.284;2023-04-20T05:59:28;100183.22;;;7.94;58.82
30708;BME280;17458;48.958;8.284;2023-04-20T06:02:12;100189.19;;;8.51;58.27
30708;BME280;17458;48.958;8.284;2023-04-20T06:04:56;100190.56;;;8.45;58.61
30708;BME280;17458;48.958;8.284;2023-04-20T06:07:40;100189.59;;;7.97;58.79
30708;BME280;17458;48.958;8.284;2023-04-20T06:10:24;100193.66;;;8.07;59.29
30708;BME280;17458;48.958;8.284;2023-04-20T06:13:08;100193.38;;;8.48;58.72
30708;BME280;17458;48.958;8.284;2023-04-20T06:15:52;100187.13;;;8.62;58.17
30708;BME280;17458;48.958;8.284;2023-04-20T06:18:36;100198.88;;;8.67;58.48
30708;BME280;17458;48.958;8.284;2023-04-20T06:21:20;100195.03;;;8.46;58.30
30708;BME280;17458;48.958;8.284;2023-04-20T06:24:04;100192.91;;;8.71;58.24
30708;BME280;17458;48.958;8.284;2023-04-20T06:26:49;100191.91;;;9.18;57.36
30708;BME280;17458;48.958;8.284;2023-04-20T06:29:33;100192.63;;;9.32;56.97
30708;BME280;17458;48.958;8.284;2023-04-20T06:32:17;100189.91;;;9.14;57.33
30708;BME280;17458;48.958;8.284;2023-04-20T06:35:01;100193.78;;;9.54;56.75
30708;BME280;17458;48.958;8.284;2023-04-20T06:37:46;100187.41;;;9.17;57.19
30708;BME280;17458;48.958;8.284;2023-04-20T06:40:30;100193.53;;;9.16;57.01
30708;BME280;17458;48.958;8.284;2023-04-20T06:43:14;100195.06;;;8.95;57.03
30708;BME280;17458;48.958;8.284;2023-04-20T06:45:58;100195.38;;;9.01;56.70
30708;BME280;17458;48.958;8.284;2023-04-20T06:48:42;100190.78;;;8.97;57.32
30708;BME280;17458;48.958;8.284;2023-04-20T06:51:26;100188.34;;;8.85;57.27
30708;BME280;17458;48.958;8.284;2023-04-20T06:54:11;100189.03;;;9.47;56.36
30708;BME280;17458;48.958;8.284;2023-04-20T06:56:55;100176.16;;;9.73;55.34
30708;BME280;17458;48.958;8.284;2023-04-20T06:59:39;100179.44;;;9.85;54.54
30708;BME280;17458;48.958;8.284;2023-04-20T07:02:23;100176.00;;;9.70;54.06
30708;BME280;17458;48.958;8.284;2023-04-20T07:05:08;100174.34;;;10.43;53.73
30708;BME280;17458;48.958;8.284;2023-04-20T07:07:52;100181.19;;;10.38;53.55
30708;BME280;17458;48.958;8.284;2023-04-20T07:10:36;100182.69;;;10.15;53.92
30708;BME280;17458;48.958;8.284;2023-04-20T07:13:22;100179.91;;;10.67;53.14
30708;BME280;17458;48.958;8.284;2023-04-20T07:16:06;100176.53;;;10.51;53.47
30708;BME280;17458;48.958;8.284;2023-04-20T07:18:51;100168.41;;;10.68;52.17
30708;BME280;17458;48.958;8.284;2023-04-20T07:21:35;100170.25;;;10.49;52.71
30708;BME280;17458;48.958;8.284;2023-04-20T07:24:19;100177.47;;;10.90;52.33
30708;BME280;17458;48.958;8.284;2023-04-20T07:27:03;100170.75;;;10.60;53.17
30708;BME280;17458;48.958;8.284;2023-04-20T07:29:48;100166.13;;;10.56;53.53
30708;BME280;17458;48.958;8.284;2023-04-20T07:32:33;100167.97;;;10.76;52.93
30708;BME280;17458;48.958;8.284;2023-04-20T07:35:17;100165.06;;;11.10;51.86
30708;BME280;17458;48.958;8.284;2023-04-20T07:38:01;100160.06;;;11.37;51.84
30708;BME280;17458;48.958;8.284;2023-04-20T07:40:45;100151.84;;;11.72;50.99
30708;BME280;17458;48.958;8.284;2023-04-20T07:43:29;100159.69;;;11.69;50.51
30708;BME280;17458;48.958;8.284;2023-04-20T07:46:22;100148.53;;;11.57;50.40
30708;BME280;17458;48.958;8.284;2023-04-20T07:49:06;100158.78;;;11.48;51.29
30708;BME280;17458;48.958;8.284;2023-04-20T07:51:51;100150.28;;;11.57;51.27
30708;BME280;17458;48.958;8.284;2023-04-20T07:54:35;100158.97;;;11.73;52.33
30708;BME280;17458;48.958;8.284;2023-04-20T07:57:19;100151.19;;;11.99;50.19
30708;BME280;17458;48.958;8.284;2023-04-20T08:00:04;100143.34;;;12.02;51.19
30708;BME280;17458;48.958;8.284;2023-04-20T08:02:56;100150.91;;;11.91;50.46
30708;BME280;17458;48.958;8.284;2023-04-20T08:05:40;100139.00;;;12.04;50.64
30708;BME280;17458;48.958;8.284;2023-04-20T08:08:24;100149.03;;;11.28;52.41
30708;BME280;17458;48.958;8.284;2023-04-20T08:11:08;100137.63;;;11.72;51.65
30708;BME280;17458;48.958;8.284;2023-04-20T08:13:52;100140.22;;;11.70;51.63
30708;BME280;17458;48.958;8.284;2023-04-20T08:16:37;100135.66;;;11.26;52.88
30708;BME280;17458;48.958;8.284;2023-04-20T08:19:21;100136.13;;;12.20;51.24
30708;BME280;17458;48.958;8.284;2023-04-20T08:22:06;100125.91;;;12.10;52.01
30708;BME280;17458;48.958;8.284;2023-04-20T08:24:50;100133.09;;;12.33;51.43
30708;BME280;17458;48.958;8.284;2023-04-20T08:27:33;100134.22;;;12.86;50.47
30708;BME280;17458;48.958;8.284;2023-04-20T08:30:18;100126.91;;;13.28;48.89
30708;BME280;17458;48.958;8.284;2023-04-20T08:33:02;100116.28;;;13.30;49.02
30708;BME280;17458;48.958;8.284;2023-04-20T08:35:49;100106.75;;;13.12;49.38
30708;BME280;17458;48.958;8.284;2023-04-20T08:38:33;100115.03;;;13.20;49.59
30708;BME280;17458;48.958;8.284;2023-04-20T08:41:17;100110.97;;;13.82;49.13
30708;BME280;17458;48.958;8.284;2023-04-20T08:44:01;100119.09;;;13.10;49.49
30708;BME280;17458;48.958;8.284;2023-04-20T08:46:47;100112.84;;;13.34;48.63
30708;BME280;17458;48.958;8.284;2023-04-20T08:49:31;100116.19;;;13.03;49.50
30708;BME280;17458;48.958;8.284;2023-04-20T08:52:16;100105.22;;;13.70;47.06
30708;BME280;17458;48.958;8.284;2023-04-20T08:55:00;100111.56;;;13.23;47.53
30708;BME280;17458;48.958;8.284;2023-04-20T08:57:46;100111.91;;;13.57;47.53
30708;BME280;17458;48.958;8.284;2023-04-20T09:00:31;100111.97;;;13.86;46.09
30708;BME280;17458;48.958;8.284;2023-04-20T09:03:15;100114.91;;;12.93;47.84
30708;BME280;17458;48.958;8.284;2023-04-20T09:06:00;100099.47;;;13.08;47.66
30708;BME280;17458;48.958;8.284;2023-04-20T09:08:44;100090.81;;;13.65;46.88
30708;BME280;17458;48.958;8.284;2023-04-20T09:11:29;100093.19;;;13.30;47.32
30708;BME280;17458;48.958;8.284;2023-04-20T09:14:14;100101.47;;;13.92;46.43
30708;BME280;17458;48.958;8.284;2023-04-20T09:16:59;100096.19;;;13.93;45.65
30708;BME280;17458;48.958;8.284;2023-04-20T09:19:52;100102.34;;;14.19;46.39
30708;BME280;17458;48.958;8.284;2023-04-20T09:22:37;100096.69;;;14.37;45.51
30708;BME280;17458;48.958;8.284;2023-04-20T09:25:22;100080.41;;;14.87;45.57
30708;BME280;17458;48.958;8.284;2023-04-20T09:28:06;100087.25;;;14.48;44.28
30708;BME280;17458;48.958;8.284;2023-04-20T09:30:51;100075.44;;;14.70;44.69
30708;BME280;17458;48.958;8.284;2023-04-20T09:33:35;100077.81;;;14.61;45.12
30708;BME280;17458;48.958;8.284;2023-04-20T09:36:20;100088.13;;;13.92;46.50
30708;BME280;17458;48.958;8.284;2023-04-20T09:39:13;100072.03;;;15.07;44.73
30708;BME280;17458;48.958;8.284;2023-04-20T09:42:01;100078.84;;;14.64;45.84
30708;BME280;17458;48.958;8.284;2023-04-20T09:44:47;100067.72;;;14.80;45.31
30708;BME280;17458;48.958;8.284;2023-04-20T09:47:34;100075.53;;;14.73;44.68
30708;BME280;17458;48.958;8.284;2023-04-20T09:50:20;100068.72;;;14.84;44.75
30708;BME280;17458;48.958;8.284;2023-04-20T09:53:04;100065.53;;;14.37;45.14
30708;BME280;17458;48.958;8.284;2023-04-20T09:55:49;100055.34;;;13.96;45.66
30708;BME280;17458;48.958;8.284;2023-04-20T09:58:35;100063.34;;;13.96;46.20
30708;BME280;17458;48.958;8.284;2023-04-20T10:01:19;100064.41;;;14.01;46.35
30708;BME280;17458;48.958;8.284;2023-04-20T10:04:07;100055.53;;;13.73;46.42
30708;BME280;17458;48.958;8.284;2023-04-20T10:06:55;100058.88;;;13.95;46.17
30708;BME280;17458;48.958;8.284;2023-04-20T10:09:46;100061.47;;;13.93;45.90
30708;BME280;17458;48.958;8.284;2023-04-20T10:12:30;100068.94;;;14.03;46.27
30708;BME280;17458;48.958;8.284;2023-04-20T10:15:15;100060.03;;;14.03;46.87
30708;BME280;17458;48.958;8.284;2023-04-20T10:17:59;100058.34;;;14.06;46.20
30708;BME280;17458;48.958;8.284;2023-04-20T10:20:43;100055.56;;;14.32;46.22
30708;BME280;17458;48.958;8.284;2023-04-20T10:23:28;100050.34;;;13.26;47.16
30708;BME280;17458;48.958;8.284;2023-04-20T10:26:12;100050.50;;;13.56;47.30
30708;BME280;17458;48.958;8.284;2023-04-20T10:28:56;100039.25;;;13.66;46.88
30708;BME280;17458;48.958;8.284;2023-04-20T10:31:41;100048.50;;;14.34;47.11
30708;BME280;17458;48.958;8.284;2023-04-20T10:34:33;100047.28;;;13.94;46.07
30708;BME280;17458;48.958;8.284;2023-04-20T10:37:17;100043.31;;;14.10;46.39
30708;BME280;17458;48.958;8.284;2023-04-20T10:40:02;100047.06;;;13.87;45.87
30708;BME280;17458;48.958;8.284;2023-04-20T10:42:47;100042.13;;;13.72;46.68
30708;BME280;17458;48.958;8.284;2023-04-20T10:45:36;100048.88;;;14.16;46.00
30708;BME280;17458;48.958;8.284;2023-04-20T10:48:21;100041.34;;;14.03;46.68
30708;BME280;17458;48.958;8.284;2023-04-20T10:51:08;100032.91;;;13.89;45.65
30708;BME280;17458;48.958;8.284;2023-04-20T10:54:06;100035.66;;;13.92;47.02
30708;BME280;17458;48.958;8.284;2023-04-20T10:56:51;100028.41;;;13.60;47.65
30708;BME280;17458;48.958;8.284;2023-04-20T10:59:35;100033.28;;;13.73;47.73
30708;BME280;17458;48.958;8.284;2023-04-20T11:02:21;100029.28;;;14.15;46.83
30708;BME280;17458;48.958;8.284;2023-04-20T11:05:10;100025.34;;;14.04;47.44
30708;BME280;17458;48.958;8.284;2023-04-20T11:07:57;100020.72;;;13.70;46.89
30708;BME280;17458;48.958;8.284;2023-04-20T11:10:42;100020.44;;;13.61;46.49
30708;BME280;17458;48.958;8.284;2023-04-20T11:13:26;100018.50;;;14.12;47.01
30708;BME280;17458;48.958;8.284;2023-04-20T11:16:14;100019.03;;;13.20;47.67
30708;BME280;17458;48.958;8.284;2023-04-20T11:18:59;100020.94;;;13.49;47.66
30708;BME280;17458;48.958;8.284;2023-04-20T11:21:43;100019.34;;;13.83;47.84
30708;BME280;17458;48.958;8.284;2023-04-20T11:24:28;100019.31;;;13.81;48.13
30708;BME280;17458;48.958;8.284;2023-04-20T11:27:20;100017.63;;;14.42;48.64
30708;BME280;17458;48.958;8.284;2023-04-20T11:30:08;100015.63;;;14.36;46.92
30708;BME280;17458;48.958;8.284;2023-04-20T11:32:53;100020.09;;;14.66;47.80
30708;BME280;17458;48.958;8.284;2023-04-20T11:35:39;99997.66;;;14.59;45.66
30708;BME280;17458;48.958;8.284;2023-04-20T11:38:32;100008.03;;;13.92;47.58
30708;BME280;17458;48.958;8.284;2023-04-20T11:41:17;100015.81;;;14.12;48.87
30708;BME280;17458;48.958;8.284;2023-04-20T11:44:01;100010.66;;;13.89;48.43
30708;BME280;17458;48.958;8.284;2023-04-20T11:46:46;100002.06;;;13.70;48.90
30708;BME280;17458;48.958;8.284;2023-04-20T11:49:31;100002.63;;;13.89;49.25
30708;BME280;17458;48.958;8.284;2023-04-20T11:52:16;99995.75;;;13.97;49.49
30708;BME280;17458;48.958;8.284;2023-04-20T11:55:00;100004.78;;;13.45;50.42
30708;BME280;17458;48.958;8.284;2023-04-20T11:57:44;100009.06;;;13.40;53.26
30708;BME280;17458;48.958;8.284;2023-04-20T12:00:28;100007.00;;;13.58;52.16
30708;BME280;17458;48.958;8.284;2023-04-20T12:03:12;100012.19;;;14.10;51.68
30708;BME280;17458;48.958;8.284;2023-04-20T12:05:57;100010.97;;;13.99;51.11
30708;BME280;17458;48.958;8.284;2023-04-20T12:08:41;100004.78;;;14.00;53.21
30708;BME280;17458;48.958;8.284;2023-04-20T12:11:26;99999.00;;;13.58;51.32
30708;BME280;17458;48.958;8.284;2023-04-20T12:14:11;99998.06;;;12.80;51.65
30708;BME280;17458;48.958;8.284;2023-04-20T12:16:54;99998.72;;;12.98;51.34
30708;BME280;17458;48.958;8.284;2023-04-20T12:19:38;100000.13;;;13.66;51.65
30708;BME280;17458;48.958;8.284;2023-04-20T12:22:22;100004.09;;;13.79;49.71
30708;BME280;17458;48.958;8.284;2023-04-20T12:25:06;100002.56;;;14.44;49.20
30708;BME280;17458;48.958;8.284;2023-04-20T12:27:51;100004.81;;;14.02;48.41
30708;BME280;17458;48.958;8.284;2023-04-20T12:30:34;99992.41;;;14.04;47.61
30708;BME280;17458;48.958;8.284;2023-04-20T12:33:18;99988.22;;;14.12;49.25
30708;BME280;17458;48.958;8.284;2023-04-20T12:36:02;99996.38;;;14.16;49.02
30708;BME280;17458;48.958;8.284;2023-04-20T12:38:46;99996.53;;;14.23;48.28
30708;BME280;17458;48.958;8.284;2023-04-20T12:41:30;99997.28;;;14.17;47.78
30708;BME280;17458;48.958;8.284;2023-04-20T12:44:14;99997.97;;;14.11;47.51
30708;BME280;17458;48.958;8.284;2023-04-20T12:46:59;99995.38;;;14.13;48.00
30708;BME280;17458;48.958;8.284;2023-04-20T12:49:43;100000.09;;;14.23;49.57
30708;BME280;17458;48.958;8.284;2023-04-20T12:52:30;99994.41;;;13.82;49.26
30708;BME280;17458;48.958;8.284;2023-04-20T12:55:14;99997.63;;;13.99;48.67
30708;BME280;17458;48.958;8.284;2023-04-20T12:57:58;99981.44;;;13.66;49.35
30708;BME280;17458;48.958;8.284;2023-04-20T13:00:41;99999.28;;;13.67;49.33
30708;BME280;17458;48.958;8.284;2023-04-20T13:03:25;99993.44;;;13.25;50.90
30708;BME280;17458;48.958;8.284;2023-04-20T13:06:10;100001.56;;;13.55;50.68
30708;BME280;17458;48.958;8.284;2023-04-20T13:08:54;99999.28;;;13.40;49.80
30708;BME280;17458;48.958;8.284;2023-04-20T13:11:38;99997.50;;;13.14;50.21
30708;BME280;17458;48.958;8.284;2023-04-20T13:14:22;100007.84;;;13.30;49.82
30708;BME280;17458;48.958;8.284;2023-04-20T13:17:07;100009.69;;;12.57;50.56
30708;BME280;17458;48.958;8.284;2023-04-20T13:19:51;100013.84;;;12.49;51.02
30708;BME280;17458;48.958;8.284;2023-04-20T13:22:36;100013.06;;;12.29;52.06
30708;BME280;17458;48.958;8.284;2023-04-20T13:25:21;99999.69;;;12.51;52.25
30708;BME280;17458;48.958;8.284;2023-04-20T13:28:06;99996.25;;;12.06;52.73
30708;BME280;17458;48.958;8.284;2023-04-20T13:30:51;99994.72;;;12.36;52.74
30708;BME280;17458;48.958;8.284;2023-04-20T13:33:36;100004.28;;;12.55;52.88
30708;BME280;17458;48.958;8.284;2023-04-20T13:36:23;100002.53;;;12.56;53.49
30708;BME280;17458;48.958;8.284;2023-04-20T13:39:08;99999.25;;;12.15;54.27
30708;BME280;17458;48.958;8.284;2023-04-20T13:41:52;99998.66;;;12.00;53.79
30708;BME280;17458;48.958;8.284;2023-04-20T13:44:36;100002.03;;;12.42;53.87
30708;BME280;17458;48.958;8.284;2023-04-20T13:47:20;100004.09;;;12.49;53.15
30708;BME280;17458;48.958;8.284;2023-04-20T13:50:05;100011.03;;;12.46;53.89
30708;BME280;17458;48.958;8.284;2023-04-20T13:52:50;100006.78;;;12.51;54.55
30708;BME280;17458;48.958;8.284;2023-04-20T13:55:33;100016.59;;;12.28;54.59
30708;BME280;17458;48.958;8.284;2023-04-20T13:58:17;100013.13;;;11.84;56.09
30708;BME280;17458;48.958;8.284;2023-04-20T14:01:09;100008.81;;;12.10;56.50
30708;BME280;17458;48.958;8.284;2023-04-20T14:03:54;100016.13;;;12.16;56.45
30708;BME280;17458;48.958;8.284;2023-04-20T14:06:37;100017.88;;;12.39;56.23
30708;BME280;17458;48.958;8.284;2023-04-20T14:09:21;100013.03;;;12.27;56.12
30708;BME280;17458;48.958;8.284;2023-04-20T14:12:05;100011.53;;;12.35;56.34
30708;BME280;17458;48.958;8.284;2023-04-20T14:14:50;100012.94;;;12.26;57.10
30708;BME280;17458;48.958;8.284;2023-04-20T14:17:34;100003.94;;;12.22;57.40
30708;BME280;17458;48.958;8.284;2023-04-20T14:20:18;100012.94;;;11.80;56.98
30708;BME280;17458;48.958;8.284;2023-04-20T14:23:01;100009.69;;;11.66;57.05
30708;BME280;17458;48.958;8.284;2023-04-20T14:25:46;100004.34;;;11.64;57.69
30708;BME280;17458;48.958;8.284;2023-04-20T14:28:30;99999.88;;;11.63;57.45